sensor_id;sensor_type;location;lat;lon;timestamp;pressure;altitude;pressure_sealevel;temperature;humidity
23118;BME280;11728;50.624;6.014;2023-04-25T00:01:06;97740.78;;;8.67;82.80
23118;BME280;11728;50.624;6.014;2023-04-25T00:06:27;97731.19;;;8.64;82.93
23118;BME280;11728;50.624;6.014;2023-04-25T00:11:48;97726.94;;;8.59;82.77
23118;BME280;11728;50.624;6.014;2023-04-25T00:17:08;97732.28;;;8.56;83.09
23118;BME280;11728;50.624;6.014;2023-04-25T00:22:29;97724.34;;;8.57;82.36
23118;BME280;11728;50.624;6.014;2023-04-25T00:27:50;97741.09;;;8.55;83.00
23118;BME280;11728;50.624;6.014;2023-04-25T00:33:11;97732.59;;;8.44;82.83
23118;BME280;11728;50.624;6.014;2023-04-25T00:38:31;97748.44;;;8.41;83.18
23118;BME280;11728;50.624;6.014;2023-04-25T00:43:54;97731.91;;;8.36;83.62
23118;BME280;11728;50.624;6.014;2023-04-25T00:49:16;97730.16;;;8.35;83.80
23118;BME280;11728;50.624;6.014;2023-04-25T00:54:37;97729.47;;;8.27;84.33
23118;BME280;11728;50.624;6.014;2023-04-25T00:59:58;97725.06;;;8.28;84.53
23118;BME280;11728;50.624;6.014;2023-04-25T01:05:19;97731.31;;;8.24;84.26
23118;BME280;11728;50.624;6.014;2023-04-25T01:10:40;97736.53;;;8.25;84.26
23118;BME280;11728;50.624;6.014;2023-04-25T01:16:02;97736.50;;;8.27;84.43
23118;BME280;11728;50.624;6.014;2023-04-25T01:21:23;97740.91;;;8.26;84.68
23118;BME280;11728;50.624;6.014;2023-04-25T01:26:46;97734.75;;;8.27;84.89
23118;BME280;11728;50.624;6.014;2023-04-25T01:32:10;97734.69;;;8.29;84.99
23118;BME280;11728;50.624;6.014;2023-04-25T01:37:31;97743.44;;;8.31;85.01
23118;BME280;11728;50.624;6.014;2023-04-25T01:42:52;97743.44;;;8.31;84.81
23118;BME280;11728;50.624;6.014;2023-04-25T01:48:14;97738.25;;;8.26;85.16
23118;BME280;11728;50.624;6.014;2023-04-25T01:53:35;97743.47;;;8.29;84.83
23118;BME280;11728;50.624;6.014;2023-04-25T01:58:55;97752.25;;;8.28;85.35
23118;BME280;11728;50.624;6.014;2023-04-25T02:04:16;97747.88;;;8.27;85.38
23118;BME280;11728;50.624;6.014;2023-04-25T02:09:37;97757.53;;;8.27;85.45
23118;BME280;11728;50.624;6.014;2023-04-25T02:14:58;97754.00;;;8.29;85.23
23118;BME280;11728;50.624;6.014;2023-04-25T02:20:20;97752.22;;;8.30;85.48
23118;BME280;11728;50.624;6.014;2023-04-25T02:25:41;97764.50;;;8.29;85.81
23118;BME280;11728;50.624;6.014;2023-04-25T02:31:02;97758.44;;;8.26;86.07
23118;BME280;11728;50.624;6.014;2023-04-25T02:36:23;97755.00;;;8.22;86.38
23118;BME280;11728;50.624;6.014;2023-04-25T02:41:44;97760.38;;;8.18;85.99
23118;BME280;11728;50.624;6.014;2023-04-25T02:47:05;97767.44;;;8.14;86.52
23118;BME280;11728;50.624;6.014;2023-04-25T02:52:26;97762.28;;;8.10;86.58
23118;BME280;11728;50.624;6.014;2023-04-25T02:57:46;97768.47;;;8.07;86.65
23118;BME280;11728;50.624;6.014;2023-04-25T03:03:07;97765.00;;;8.05;86.33
23118;BME280;11728;50.624;6.014;2023-04-25T03:08:28;97769.47;;;8.00;86.84
23118;BME280;11728;50.624;6.014;2023-04-25T03:13:52;97766.97;;;7.96;86.61
23118;BME280;11728;50.624;6.014;2023-04-25T03:19:13;97767.81;;;7.96;87.13
23118;BME280;11728;50.624;6.014;2023-04-25T03:24:36;97765.25;;;7.93;86.93
23118;BME280;11728;50.624;6.014;2023-04-25T03:29:57;97768.78;;;7.92;87.49
23118;BME280;11728;50.624;6.014;2023-04-25T03:35:18;97765.38;;;7.87;87.41
23118;BME280;11728;50.624;6.014;2023-04-25T03:40:39;97772.56;;;7.79;88.10
23118;BME280;11728;50.624;6.014;2023-04-25T03:46:00;97772.56;;;7.79;88.37
23118;BME280;11728;50.624;6.014;2023-04-25T03:51:21;97782.25;;;7.77;88.29
23118;BME280;11728;50.624;6.014;2023-04-25T03:56:41;97777.03;;;7.74;88.74
23118;BME280;11728;50.624;6.014;2023-04-25T04:02:02;97784.13;;;7.71;88.46
23118;BME280;11728;50.624;6.014;2023-04-25T04:07:23;97787.59;;;7.73;89.04
23118;BME280;11728;50.624;6.014;2023-04-25T04:12:44;97790.31;;;7.68;89.18
23118;BME280;11728;50.624;6.014;2023-04-25T04:18:05;97800.81;;;7.67;89.96
23118;BME280;11728;50.624;6.014;2023-04-25T04:23:26;97807.91;;;7.63;89.87
23118;BME280;11728;50.624;6.014;2023-04-25T04:28:49;97798.34;;;7.60;90.25
23118;BME280;11728;50.624;6.014;2023-04-25T04:34:14;97807.91;;;7.63;89.98
23118;BME280;11728;50.624;6.014;2023-04-25T04:39:36;97819.38;;;7.60;89.68
23118;BME280;11728;50.624;6.014;2023-04-25T04:44:57;97820.25;;;7.59;90.07
23118;BME280;11728;50.624;6.014;2023-04-25T04:50:19;97827.22;;;7.63;90.41
23118;BME280;11728;50.624;6.014;2023-04-25T04:55:40;97835.91;;;7.66;90.35
23118;BME280;11728;50.624;6.014;2023-04-25T05:01:01;97835.88;;;7.67;90.67
23118;BME280;11728;50.624;6.014;2023-04-25T05:06:22;97842.69;;;7.76;90.59
23118;BME280;11728;50.624;6.014;2023-04-25T05:11:43;97844.41;;;7.78;90.23
23118;BME280;11728;50.624;6.014;2023-04-25T05:17:03;97851.50;;;7.73;90.49
23118;BME280;11728;50.624;6.014;2023-04-25T05:22:28;97864.66;;;7.73;90.00
23118;BME280;11728;50.624;6.014;2023-04-25T05:27:50;97867.97;;;7.83;89.64
23118;BME280;11728;50.624;6.014;2023-04-25T05:33:11;97874.75;;;7.96;89.29
23118;BME280;11728;50.624;6.014;2023-04-25T05:38:32;97869.50;;;7.96;89.66
23118;BME280;11728;50.624;6.014;2023-04-25T05:43:53;97867.66;;;7.99;89.97
23118;BME280;11728;50.624;6.014;2023-04-25T05:49:13;97880.81;;;7.99;89.80
23118;BME280;11728;50.624;6.014;2023-04-25T05:54:34;97891.34;;;7.98;90.42
23118;BME280;11728;50.624;6.014;2023-04-25T05:59:55;97896.59;;;7.99;90.34
23118;BME280;11728;50.624;6.014;2023-04-25T06:05:16;97900.59;;;8.18;90.23
23118;BME280;11728;50.624;6.014;2023-04-25T06:10:37;97903.78;;;8.35;89.88
23118;BME280;11728;50.624;6.014;2023-04-25T06:15:57;97909.09;;;8.32;89.43
23118;BME280;11728;50.624;6.014;2023-04-25T06:21:18;97909.84;;;8.37;89.89
23118;BME280;11728;50.624;6.014;2023-04-25T06:26:39;97916.31;;;8.23;90.21
23118;BME280;11728;50.624;6.014;2023-04-25T06:32:00;97911.97;;;8.20;90.41
23118;BME280;11728;50.624;6.014;2023-04-25T06:37:20;97918.63;;;8.38;89.86
23118;BME280;11728;50.624;6.014;2023-04-25T06:42:41;97922.28;;;8.71;88.84
23118;BME280;11728;50.624;6.014;2023-04-25T06:48:02;97925.59;;;8.81;87.27
23118;BME280;11728;50.624;6.014;2023-04-25T06:53:23;97927.00;;;8.56;87.84
23118;BME280;11728;50.624;6.014;2023-04-25T06:58:43;97933.22;;;8.53;87.62
23118;BME280;11728;50.624;6.014;2023-04-25T07:04:04;97938.97;;;8.72;86.47
23118;BME280;11728;50.624;6.014;2023-04-25T07:09:25;97933.72;;;9.10;85.56
23118;BME280;11728;50.624;6.014;2023-04-25T07:14:46;97934.59;;;9.46;83.47
23118;BME280;11728;50.624;6.014;2023-04-25T07:20:07;97947.44;;;9.23;82.86
23118;BME280;11728;50.624;6.014;2023-04-25T07:25:29;97958.47;;;9.03;82.77
23118;BME280;11728;50.624;6.014;2023-04-25T07:30:51;97967.91;;;8.70;82.86
23118;BME280;11728;50.624;6.014;2023-04-25T07:36:12;97978.34;;;8.76;82.33
23118;BME280;11728;50.624;6.014;2023-04-25T07:41:33;97977.69;;;9.06;81.00
23118;BME280;11728;50.624;6.014;2023-04-25T07:46:53;97976.06;;;9.38;80.26
23118;BME280;11728;50.624;6.014;2023-04-25T07:52:14;97977.09;;;9.69;78.98
23118;BME280;11728;50.624;6.014;2023-04-25T07:57:35;97987.47;;;9.75;76.75
23118;BME280;11728;50.624;6.014;2023-04-25T08:02:56;98004.41;;;9.65;75.49
23118;BME280;11728;50.624;6.014;2023-04-25T08:08:17;98015.25;;;9.53;74.30
23118;BME280;11728;50.624;6.014;2023-04-25T08:13:37;98009.53;;;9.33;74.62
23118;BME280;11728;50.624;6.014;2023-04-25T08:18:59;98029.72;;;9.36;74.99
23118;BME280;11728;50.624;6.014;2023-04-25T08:24:20;98049.75;;;9.41;74.94
23118;BME280;11728;50.624;6.014;2023-04-25T08:29:41;98058.97;;;9.22;75.17
23118;BME280;11728;50.624;6.014;2023-04-25T08:35:02;98063.66;;;9.09;75.60
23118;BME280;11728;50.624;6.014;2023-04-25T08:40:27;98066.13;;;9.18;75.82
23118;BME280;11728;50.624;6.014;2023-04-25T08:45:52;98076.44;;;9.28;75.69
23118;BME280;11728;50.624;6.014;2023-04-25T08:51:21;98070.94;;;9.38;75.82
23118;BME280;11728;50.624;6.014;2023-04-25T08:56:45;98079.44;;;9.49;75.58
23118;BME280;11728;50.624;6.014;2023-04-25T09:02:06;98080.22;;;9.92;74.74
23118;BME280;11728;50.624;6.014;2023-04-25T09:07:26;98091.88;;;10.55;72.82
23118;BME280;11728;50.624;6.014;2023-04-25T09:13:07;98085.66;;;11.49;70.97
23118;BME280;11728;50.624;6.014;2023-04-25T09:18:34;98085.75;;;13.06;68.29
23118;BME280;11728;50.624;6.014;2023-04-25T09:23:55;98102.41;;;13.57;65.84
23118;BME280;11728;50.624;6.014;2023-04-25T09:29:16;98103.06;;;13.39;64.75
23118;BME280;11728;50.624;6.014;2023-04-25T09:34:41;98114.47;;;12.94;64.11
23118;BME280;11728;50.624;6.014;2023-04-25T09:40:06;98117.03;;;12.18;64.99
23118;BME280;11728;50.624;6.014;2023-04-25T09:45:29;98137.84;;;11.43;64.74
23118;BME280;11728;50.624;6.014;2023-04-25T09:51:12;98145.72;;;11.14;63.77
23118;BME280;11728;50.624;6.014;2023-04-25T09:56:36;98148.25;;;11.17;64.33
23118;BME280;11728;50.624;6.014;2023-04-25T10:01:58;98153.84;;;11.69;64.50
23118;BME280;11728;50.624;6.014;2023-04-25T10:07:22;98156.78;;;11.60;62.74
23118;BME280;11728;50.624;6.014;2023-04-25T10:12:46;98159.47;;;11.25;63.17
23118;BME280;11728;50.624;6.014;2023-04-25T10:18:07;98158.44;;;10.99;63.25
23118;BME280;11728;50.624;6.014;2023-04-25T10:23:29;98153.00;;;10.73;63.03
23118;BME280;11728;50.624;6.014;2023-04-25T10:29:03;98161.63;;;10.45;63.28
23118;BME280;11728;50.624;6.014;2023-04-25T10:34:37;98159.25;;;10.34;63.67
23118;BME280;11728;50.624;6.014;2023-04-25T10:40:08;98168.16;;;10.30;64.49
23118;BME280;11728;50.624;6.014;2023-04-25T10:45:29;98174.50;;;10.22;64.81
23118;BME280;11728;50.624;6.014;2023-04-25T10:51:06;98175.72;;;10.44;64.87
23118;BME280;11728;50.624;6.014;2023-04-25T10:56:28;98162.25;;;12.12;62.91
23118;BME280;11728;50.624;6.014;2023-04-25T11:01:52;98157.56;;;13.94;57.72
23118;BME280;11728;50.624;6.014;2023-04-25T11:13:29;98138.16;;;16.71;51.47
23118;BME280;11728;50.624;6.014;2023-04-25T11:18:50;98136.22;;;16.39;50.98
23118;BME280;11728;50.624;6.014;2023-04-25T11:24:11;98127.13;;;17.63;48.18
23118;BME280;11728;50.624;6.014;2023-04-25T11:29:34;98131.09;;;18.66;46.91
23118;BME280;11728;50.624;6.014;2023-04-25T11:34:55;98131.16;;;18.50;45.22
23118;BME280;11728;50.624;6.014;2023-04-25T11:40:16;98137.38;;;17.38;46.15
23118;BME280;11728;50.624;6.014;2023-04-25T11:45:37;98148.53;;;15.66;47.20
23118;BME280;11728;50.624;6.014;2023-04-25T11:51:00;98153.25;;;14.36;48.60
23118;BME280;11728;50.624;6.014;2023-04-25T11:56:20;98163.72;;;13.25;50.53
23118;BME280;11728;50.624;6.014;2023-04-25T12:01:48;98164.34;;;12.55;51.88
23118;BME280;11728;50.624;6.014;2023-04-25T12:07:10;98178.47;;;12.00;53.22
23118;BME280;11728;50.624;6.014;2023-04-25T12:12:34;98190.31;;;11.58;54.69
23118;BME280;11728;50.624;6.014;2023-04-25T12:17:55;98202.03;;;11.16;56.56
23118;BME280;11728;50.624;6.014;2023-04-25T12:23:16;98210.94;;;11.12;57.63
23118;BME280;11728;50.624;6.014;2023-04-25T12:28:37;98207.50;;;11.09;58.05
23118;BME280;11728;50.624;6.014;2023-04-25T12:33:58;98215.41;;;11.42;58.17
23118;BME280;11728;50.624;6.014;2023-04-25T12:39:20;98220.25;;;11.58;57.62
23118;BME280;11728;50.624;6.014;2023-04-25T12:44:42;98218.34;;;11.94;57.28
23118;BME280;11728;50.624;6.014;2023-04-25T12:50:03;98219.63;;;12.38;56.12
23118;BME280;11728;50.624;6.014;2023-04-25T12:55:25;98219.50;;;12.96;54.66
23118;BME280;11728;50.624;6.014;2023-04-25T13:00:46;98220.47;;;13.92;52.66
23118;BME280;11728;50.624;6.014;2023-04-25T13:06:07;98206.22;;;15.05;50.45
23118;BME280;11728;50.624;6.014;2023-04-25T13:11:28;98206.03;;;16.28;47.81
23118;BME280;11728;50.624;6.014;2023-04-25T13:16:49;98212.75;;;15.59;47.28
23118;BME280;11728;50.624;6.014;2023-04-25T13:22:10;98206.97;;;14.87;47.58
23118;BME280;11728;50.624;6.014;2023-04-25T13:27:31;98200.22;;;16.56;46.31
23118;BME280;11728;50.624;6.014;2023-04-25T13:32:54;98196.31;;;18.16;42.47
23118;BME280;11728;50.624;6.014;2023-04-25T13:38:17;98196.34;;;18.64;41.80
23118;BME280;11728;50.624;6.014;2023-04-25T13:43:38;98190.38;;;18.74;40.90
23118;BME280;11728;50.624;6.014;2023-04-25T13:48:58;98192.81;;;17.99;40.40
23118;BME280;11728;50.624;6.014;2023-04-25T13:54:19;98198.84;;;16.66;41.55
23118;BME280;11728;50.624;6.014;2023-04-25T13:59:40;98202.81;;;15.82;41.77
23118;BME280;11728;50.624;6.014;2023-04-25T14:05:04;98199.53;;;14.95;42.78
23118;BME280;11728;50.624;6.014;2023-04-25T14:10:25;98208.69;;;14.45;43.26
23118;BME280;11728;50.624;6.014;2023-04-25T14:15:46;98218.38;;;14.69;43.30
23118;BME280;11728;50.624;6.014;2023-04-25T14:21:07;98213.06;;;14.69;43.95
23118;BME280;11728;50.624;6.014;2023-04-25T14:26:28;98219.66;;;14.80;45.29
23118;BME280;11728;50.624;6.014;2023-04-25T14:31:49;98231.16;;;15.02;45.30
23118;BME280;11728;50.624;6.014;2023-04-25T14:37:10;98228.75;;;14.75;46.04
23118;BME280;11728;50.624;6.014;2023-04-25T14:42:30;98236.66;;;14.76;45.76
23118;BME280;11728;50.624;6.014;2023-04-25T14:47:52;98233.88;;;14.35;46.08
23118;BME280;11728;50.624;6.014;2023-04-25T14:53:13;98244.13;;;14.23;45.43
23118;BME280;11728;50.624;6.014;2023-04-25T14:58:34;98241.53;;;13.97;45.03
23118;BME280;11728;50.624;6.014;2023-04-25T15:03:55;98241.78;;;13.67;45.02
23118;BME280;11728;50.624;6.014;2023-04-25T15:09:16;98235.81;;;13.60;44.94
23118;BME280;11728;50.624;6.014;2023-04-25T15:14:37;98241.34;;;13.79;44.37
23118;BME280;11728;50.624;6.014;2023-04-25T15:19:57;98249.81;;;13.89;44.48
23118;BME280;11728;50.624;6.014;2023-04-25T15:25:18;98258.69;;;13.88;44.87
23118;BME280;11728;50.624;6.014;2023-04-25T15:30:39;98257.00;;;14.33;43.39
23118;BME280;11728;50.624;6.014;2023-04-25T15:35:59;98261.91;;;14.21;42.66
23118;BME280;11728;50.624;6.014;2023-04-25T15:41:20;98259.84;;;13.80;43.38
23118;BME280;11728;50.624;6.014;2023-04-25T15:46:41;98269.19;;;13.43;44.46
23118;BME280;11728;50.624;6.014;2023-04-25T15:52:03;98272.69;;;12.92;45.67
23118;BME280;11728;50.624;6.014;2023-04-25T15:57:24;98276.41;;;12.57;47.22
23118;BME280;11728;50.624;6.014;2023-04-25T16:02:45;98285.84;;;12.38;48.35
23118;BME280;11728;50.624;6.014;2023-04-25T16:08:07;98289.78;;;12.24;49.73
23118;BME280;11728;50.624;6.014;2023-04-25T16:13:28;98296.84;;;11.95;51.13
23118;BME280;11728;50.624;6.014;2023-04-25T16:18:49;98293.78;;;11.78;51.61
23118;BME280;11728;50.624;6.014;2023-04-25T16:24:10;98292.56;;;11.89;51.69
23118;BME280;11728;50.624;6.014;2023-04-25T16:29:31;98293.75;;;12.10;51.36
23118;BME280;11728;50.624;6.014;2023-04-25T16:34:52;98283.72;;;12.78;49.37
23118;BME280;11728;50.624;6.014;2023-04-25T16:40:13;98287.84;;;12.87;48.16
23118;BME280;11728;50.624;6.014;2023-04-25T16:45:33;98293.13;;;12.59;48.19
23118;BME280;11728;50.624;6.014;2023-04-25T16:50:54;98288.22;;;12.47;48.07
23118;BME280;11728;50.624;6.014;2023-04-25T16:56:16;98283.69;;;12.22;48.46
23118;BME280;11728;50.624;6.014;2023-04-25T17:01:36;98286.72;;;12.09;48.36
23118;BME280;11728;50.624;6.014;2023-04-25T17:06:57;98285.94;;;12.05;48.54
23118;BME280;11728;50.624;6.014;2023-04-25T17:12:18;98295.09;;;11.94;48.57
23118;BME280;11728;50.624;6.014;2023-04-25T17:17:41;98302.63;;;11.77;48.93
23118;BME280;11728;50.624;6.014;2023-04-25T17:23:02;98301.22;;;11.64;49.89
23118;BME280;11728;50.624;6.014;2023-04-25T17:28:23;98302.19;;;11.61;49.80
23118;BME280;11728;50.624;6.014;2023-04-25T17:33:44;98310.34;;;11.52;50.03
23118;BME280;11728;50.624;6.014;2023-04-25T17:39:04;98323.53;;;11.54;50.33
23118;BME280;11728;50.624;6.014;2023-04-25T17:44:25;98321.81;;;11.53;50.74
23118;BME280;11728;50.624;6.014;2023-04-25T17:49:46;98319.41;;;11.43;51.03
23118;BME280;11728;50.624;6.014;2023-04-25T17:55:07;98316.44;;;11.21;51.18
23118;BME280;11728;50.624;6.014;2023-04-25T18:00:28;98322.94;;;11.07;50.80
23118;BME280;11728;50.624;6.014;2023-04-25T18:05:51;98329.47;;;10.92;50.77
23118;BME280;11728;50.624;6.014;2023-04-25T18:11:11;98331.50;;;10.81;50.88
23118;BME280;11728;50.624;6.014;2023-04-25T18:16:32;98330.09;;;10.66;51.42
23118;BME280;11728;50.624;6.014;2023-04-25T18:21:54;98337.53;;;10.49;51.96
23118;BME280;11728;50.624;6.014;2023-04-25T18:27:15;98339.66;;;10.32;52.34
23118;BME280;11728;50.624;6.014;2023-04-25T18:32:36;98352.41;;;10.12;53.26
23118;BME280;11728;50.624;6.014;2023-04-25T18:37:57;98358.25;;;9.81;53.80
23118;BME280;11728;50.624;6.014;2023-04-25T18:43:18;98362.22;;;9.57;54.60
23118;BME280;11728;50.624;6.014;2023-04-25T18:48:39;98369.72;;;9.30;55.16
23118;BME280;11728;50.624;6.014;2023-04-25T18:54:00;98376.19;;;9.11;55.63
23118;BME280;11728;50.624;6.014;2023-04-25T18:59:21;98386.91;;;8.98;55.79
23118;BME280;11728;50.624;6.014;2023-04-25T19:04:42;98395.00;;;8.86;56.39
23118;BME280;11728;50.624;6.014;2023-04-25T19:10:03;98392.53;;;8.75;57.29
23118;BME280;11728;50.624;6.014;2023-04-25T19:15:24;98398.75;;;8.70;57.80
23118;BME280;11728;50.624;6.014;2023-04-25T19:20:45;98409.25;;;8.73;58.27
23118;BME280;11728;50.624;6.014;2023-04-25T19:26:06;98408.22;;;8.84;58.68
23118;BME280;11728;50.624;6.014;2023-04-25T19:31:26;98408.84;;;9.00;58.88
23118;BME280;11728;50.624;6.014;2023-04-25T19:36:47;98409.47;;;9.15;58.18
23118;BME280;11728;50.624;6.014;2023-04-25T19:42:12;98420.91;;;9.16;58.10
23118;BME280;11728;50.624;6.014;2023-04-25T19:47:33;98420.06;;;9.12;58.21
23118;BME280;11728;50.624;6.014;2023-04-25T19:52:57;98436.69;;;9.16;57.80
23118;BME280;11728;50.624;6.014;2023-04-25T19:58:18;98428.91;;;9.10;57.97
23118;BME280;11728;50.624;6.014;2023-04-25T20:03:39;98435.16;;;9.01;58.42
23118;BME280;11728;50.624;6.014;2023-04-25T20:08:59;98437.91;;;8.92;58.52
23118;BME280;11728;50.624;6.014;2023-04-25T20:14:21;98448.63;;;8.80;58.90
23118;BME280;11728;50.624;6.014;2023-04-25T20:19:41;98448.69;;;8.74;58.99
23118;BME280;11728;50.624;6.014;2023-04-25T20:25:03;98449.72;;;8.66;59.47
23118;BME280;11728;50.624;6.014;2023-04-25T20:30:24;98463.88;;;8.53;59.50
23118;BME280;11728;50.624;6.014;2023-04-25T20:35:45;98460.47;;;8.45;59.82
23118;BME280;11728;50.624;6.014;2023-04-25T20:41:06;98467.53;;;8.43;59.83
23118;BME280;11728;50.624;6.014;2023-04-25T20:46:27;98461.38;;;8.42;59.58
23118;BME280;11728;50.624;6.014;2023-04-25T20:51:48;98469.31;;;8.38;60.00
23118;BME280;11728;50.624;6.014;2023-04-25T20:57:08;98460.59;;;8.36;60.18
23118;BME280;11728;50.624;6.014;2023-04-25T21:02:29;98468.53;;;8.32;59.98
23118;BME280;11728;50.624;6.014;2023-04-25T21:07:50;98458.97;;;8.23;60.49
23118;BME280;11728;50.624;6.014;2023-04-25T21:13:14;98467.00;;;8.10;61.10
23118;BME280;11728;50.624;6.014;2023-04-25T21:18:35;98474.97;;;8.01;61.65
23118;BME280;11728;50.624;6.014;2023-04-25T21:23:55;98477.75;;;7.84;62.03
23118;BME280;11728;50.624;6.014;2023-04-25T21:29:17;98472.56;;;7.80;62.06
23118;BME280;11728;50.624;6.014;2023-04-25T21:34:37;98490.06;;;7.81;62.25
23118;BME280;11728;50.624;6.014;2023-04-25T21:39:58;98484.00;;;7.73;62.50
23118;BME280;11728;50.624;6.014;2023-04-25T21:45:19;98488.41;;;7.68;62.60
23118;BME280;11728;50.624;6.014;2023-04-25T21:50:40;98482.31;;;7.64;62.49
23118;BME280;11728;50.624;6.014;2023-04-25T21:56:01;98493.69;;;7.63;62.85
23118;BME280;11728;50.624;6.014;2023-04-25T22:01:24;98503.31;;;7.64;62.75
23118;BME280;11728;50.624;6.014;2023-04-25T22:06:46;98504.22;;;7.63;63.03
23118;BME280;11728;50.624;6.014;2023-04-25T22:12:08;98508.63;;;7.62;63.02
23118;BME280;11728;50.624;6.014;2023-04-25T22:17:28;98511.38;;;7.44;63.85
23118;BME280;11728;50.624;6.014;2023-04-25T22:22:51;98517.66;;;7.19;63.85
23118;BME280;11728;50.624;6.014;2023-04-25T22:28:12;98518.69;;;6.91;64.74
23118;BME280;11728;50.624;6.014;2023-04-25T22:33:34;98519.66;;;6.69;65.06
23118;BME280;11728;50.624;6.014;2023-04-25T22:38:55;98536.34;;;6.49;65.96
23118;BME280;11728;50.624;6.014;2023-04-25T22:44:16;98536.41;;;6.32;66.48
23118;BME280;11728;50.624;6.014;2023-04-25T22:49:37;98529.41;;;6.30;66.90
23118;BME280;11728;50.624;6.014;2023-04-25T22:54:59;98535.53;;;6.24;66.63
23118;BME280;11728;50.624;6.014;2023-04-25T23:00:22;98531.22;;;6.11;66.59
23118;BME280;11728;50.624;6.014;2023-04-25T23:05:45;98533.84;;;6.03;67.03
23118;BME280;11728;50.624;6.014;2023-04-25T23:11:07;98544.31;;;5.94;66.96
23118;BME280;11728;50.624;6.014;2023-04-25T23:16:28;98543.47;;;5.92;67.11
23118;BME280;11728;50.624;6.014;2023-04-25T23:21:48;98549.56;;;5.79;67.64
23118;BME280;11728;50.624;6.014;2023-04-25T23:27:09;98547.81;;;5.67;67.94
23118;BME280;11728;50.624;6.014;2023-04-25T23:32:30;98558.25;;;5.46;68.39
23118;BME280;11728;50.624;6.014;2023-04-25T23:37:51;98558.25;;;5.27;69.20
23118;BME280;11728;50.624;6.014;2023-04-25T23:43:12;98568.66;;;5.12;69.81
23118;BME280;11728;50.624;6.014;2023-04-25T23:48:32;98561.63;;;4.96;70.37
23118;BME280;11728;50.624;6.014;2023-04-25T23:53:53;98552.88;;;4.82;71.21
23118;BME280;11728;50.624;6.014;2023-04-25T23:59:14;98553.72;;;4.75;71.55
